createdAt,value
2022-09-25T00:00:20.977Z,6.90
2022-09-25T00:01:48.349Z,8.20
2022-09-25T00:02:56.609Z,9.30
2022-09-25T00:04:04.139Z,8.50
2022-09-25T00:05:11.540Z,7.00
2022-09-25T00:06:23.749Z,6.10
2022-09-25T00:07:30.736Z,8.90
2022-09-25T00:08:38.608Z,7.80
2022-09-25T00:09:45.592Z,8.50
2022-09-25T00:10:53.633Z,9.30
2022-09-25T00:12:01.024Z,8.70
2022-09-25T00:13:08.116Z,10.60
2022-09-25T00:14:15.880Z,6.90
2022-09-25T00:15:23.438Z,10.70
2022-09-25T00:16:31.911Z,8.20
2022-09-25T00:17:39.111Z,10.20
2022-09-25T00:19:04.934Z,8.00
2022-09-25T00:20:12.694Z,8.00
2022-09-25T00:21:19.862Z,12.00
2022-09-25T00:22:27.477Z,7.40
2022-09-25T00:23:35.639Z,6.80
2022-09-25T00:24:43.144Z,7.20
2022-09-25T00:26:01.145Z,6.90
2022-09-25T00:27:09.832Z,8.50
2022-09-25T00:28:18.445Z,8.10
2022-09-25T00:29:26.031Z,6.90
2022-09-25T00:30:33.463Z,9.50
2022-09-25T00:31:40.551Z,7.50
2022-09-25T00:32:47.909Z,9.10
2022-09-25T00:33:55.617Z,8.00
2022-09-25T00:35:02.919Z,7.00
2022-09-25T00:36:11.313Z,9.80
2022-09-25T00:37:18.738Z,7.70
2022-09-25T00:38:26.627Z,7.10
2022-09-25T00:39:34.345Z,8.00
2022-09-25T00:40:41.825Z,8.10
2022-09-25T00:41:49.040Z,8.10
2022-09-25T00:42:56.351Z,7.90
2022-09-25T00:44:04.320Z,6.80
2022-09-25T00:45:23.742Z,9.90
2022-09-25T00:46:43.784Z,7.20
2022-09-25T00:47:50.867Z,8.00
2022-09-25T00:49:17.729Z,8.30
2022-09-25T00:50:46.040Z,7.00
2022-09-25T00:51:56.591Z,8.50
2022-09-25T00:53:15.499Z,8.70
2022-09-25T00:54:24.845Z,8.60
2022-09-25T00:55:33.385Z,8.30
2022-09-25T00:56:41.735Z,9.90
2022-09-25T00:57:49.782Z,5.80
2022-09-25T00:58:57.176Z,5.70
2022-09-25T01:00:14.650Z,8.10
2022-09-25T01:01:23.817Z,8.40
2022-09-25T01:02:35.485Z,8.80
2022-09-25T01:03:43.066Z,5.40
2022-09-25T01:04:50.784Z,8.60
2022-09-25T01:05:59.921Z,8.20
2022-09-25T01:07:10.515Z,7.00
2022-09-25T01:08:23.393Z,5.40
2022-09-25T01:09:30.725Z,6.90
2022-09-25T01:10:38.213Z,7.40
2022-09-25T01:11:46.443Z,6.10
2022-09-25T01:12:54.501Z,7.20
2022-09-25T01:14:05.917Z,7.90
2022-09-25T01:15:14.387Z,7.20
2022-09-25T01:16:33.746Z,8.50
2022-09-25T01:17:59.169Z,9.50
2022-09-25T01:19:14.993Z,8.40
2022-09-25T01:20:34.009Z,8.30
2022-09-25T01:21:45.485Z,7.50
2022-09-25T01:23:04.022Z,6.30
2022-09-25T01:24:21.610Z,6.50
2022-09-25T01:25:46.393Z,5.30
2022-09-25T01:27:21.684Z,6.20
2022-09-25T01:29:02.886Z,9.10
2022-09-25T01:30:15.426Z,6.80
2022-09-25T01:31:44.874Z,7.60
2022-09-25T01:33:04.268Z,6.50
2022-09-25T01:34:16.857Z,9.70
2022-09-25T01:35:40.789Z,7.70
2022-09-25T01:36:52.379Z,6.60
2022-09-25T01:38:04.274Z,7.30
2022-09-25T01:39:17.416Z,7.40
2022-09-25T01:40:34.667Z,5.40
2022-09-25T01:41:52.214Z,7.20
2022-09-25T01:43:09.769Z,7.20
2022-09-25T01:44:30.240Z,8.10
2022-09-25T01:45:42.523Z,8.20
2022-09-25T01:46:54.527Z,6.00
2022-09-25T01:48:02.981Z,5.50
2022-09-25T01:49:29.244Z,5.30
2022-09-25T01:50:47.855Z,7.10
2022-09-25T01:51:57.306Z,9.30
2022-09-25T01:53:06.245Z,9.80
2022-09-25T01:54:38.727Z,7.10
2022-09-25T01:55:52.893Z,5.70
2022-09-25T01:57:12.714Z,7.90
2022-09-25T01:58:30.628Z,6.80
2022-09-25T02:00:00.276Z,9.30
2022-09-25T02:01:12.465Z,8.60
2022-09-25T02:02:21.957Z,7.80
2022-09-25T02:03:32.668Z,7.80
2022-09-25T02:04:41.048Z,6.60
2022-09-25T02:05:50.996Z,7.10
2022-09-25T02:07:03.753Z,5.00
2022-09-25T02:08:25.135Z,6.80
2022-09-25T02:09:38.295Z,8.20
2022-09-25T02:10:48.710Z,6.70
2022-09-25T02:11:58.179Z,7.40
2022-09-25T02:13:22.547Z,6.50
2022-09-25T02:14:40.876Z,6.80
2022-09-25T02:16:01.441Z,7.40
2022-09-25T02:17:10.326Z,7.00
2022-09-25T02:18:36.987Z,6.80
2022-09-25T02:20:02.798Z,7.50
2022-09-25T02:21:19.228Z,5.40
2022-09-25T02:22:37.524Z,7.20
2022-09-25T02:23:55.242Z,5.30
2022-09-25T02:25:19.316Z,7.70
2022-09-25T02:26:30.191Z,5.60
2022-09-25T02:27:37.304Z,8.10
2022-09-25T02:28:45.309Z,8.10
2022-09-25T02:29:53.566Z,10.80
2022-09-25T02:31:01.391Z,7.10
2022-09-25T02:32:10.896Z,5.30
2022-09-25T02:33:18.489Z,6.90
2022-09-25T02:34:26.130Z,7.30
2022-09-25T02:35:33.820Z,6.90
2022-09-25T02:36:41.898Z,6.50
2022-09-25T02:37:49.425Z,7.10
2022-09-25T02:38:57.424Z,5.70
2022-09-25T02:40:04.897Z,6.50
2022-09-25T02:41:42.199Z,8.90
2022-09-25T02:43:05.389Z,7.90
2022-09-25T02:44:34.193Z,7.60
2022-09-25T02:46:09.961Z,6.90
2022-09-25T02:47:26.735Z,5.40
2022-09-25T02:48:50.483Z,8.70
2022-09-25T02:50:23.381Z,8.10
2022-09-25T02:51:46.263Z,6.40
2022-09-25T02:53:24.100Z,6.30
2022-09-25T02:54:56.154Z,6.70
2022-09-25T02:56:07.147Z,8.10
2022-09-25T02:57:26.975Z,8.60
2022-09-25T02:58:36.787Z,7.20
2022-09-25T02:59:48.854Z,5.60
2022-09-25T03:00:56.242Z,6.30
2022-09-25T03:02:03.837Z,5.60
2022-09-25T03:03:12.329Z,6.10
2022-09-25T03:04:19.573Z,5.90
2022-09-25T03:05:26.954Z,7.00
2022-09-25T03:06:34.373Z,5.80
2022-09-25T03:08:00.073Z,5.40
2022-09-25T03:09:07.770Z,8.60
2022-09-25T03:10:15.396Z,6.80
2022-09-25T03:11:23.254Z,8.30
2022-09-25T03:12:30.683Z,6.50
2022-09-25T03:13:40.283Z,6.80
2022-09-25T03:14:48.419Z,7.80
2022-09-25T03:16:02.866Z,7.80
2022-09-25T03:17:11.562Z,10.40
2022-09-25T03:18:18.970Z,5.80
2022-09-25T03:19:29.227Z,6.30
2022-09-25T03:20:36.502Z,7.50
2022-09-25T03:21:44.392Z,7.30
2022-09-25T03:22:51.791Z,6.30
2022-09-25T03:23:59.214Z,7.80
2022-09-25T03:25:07.068Z,9.90
2022-09-25T03:26:14.711Z,5.70
2022-09-25T03:27:23.476Z,8.60
2022-09-25T03:28:31.377Z,6.30
2022-09-25T03:29:38.880Z,10.10
2022-09-25T03:30:46.983Z,8.80
2022-09-25T03:31:54.456Z,6.60
2022-09-25T03:33:01.628Z,6.00
2022-09-25T03:34:08.903Z,8.80
2022-09-25T03:35:16.541Z,8.90
2022-09-25T03:36:25.154Z,8.20
2022-09-25T03:37:32.586Z,10.30
2022-09-25T03:38:43.249Z,9.30
2022-09-25T03:39:50.488Z,7.10
2022-09-25T03:40:58.045Z,6.80
2022-09-25T03:42:06.349Z,8.60
2022-09-25T03:44:19.362Z,7.00
2022-09-25T03:45:26.669Z,7.10
2022-09-25T03:46:36.077Z,6.90
2022-09-25T03:47:43.290Z,8.70
2022-09-25T03:48:50.659Z,11.00
2022-09-25T03:49:57.923Z,8.00
2022-09-25T03:51:05.720Z,8.10
2022-09-25T03:52:14.080Z,10.40
2022-09-25T03:53:21.459Z,7.30
2022-09-25T03:54:29.410Z,8.40
2022-09-25T03:55:36.723Z,7.40
2022-09-25T03:56:44.068Z,9.30
2022-09-25T03:57:51.940Z,10.30
2022-09-25T03:58:59.357Z,6.20
2022-09-25T04:00:07.878Z,8.70
2022-09-25T04:01:23.196Z,6.80
2022-09-25T04:02:31.436Z,9.40
2022-09-25T04:03:39.235Z,10.60
2022-09-25T04:04:47.196Z,9.50
2022-09-25T04:05:54.419Z,10.50
2022-09-25T04:07:02.083Z,9.30
2022-09-25T04:08:09.891Z,10.80
2022-09-25T04:09:17.622Z,9.40
2022-09-25T04:10:25.457Z,8.70
2022-09-25T04:11:33.569Z,10.80
2022-09-25T04:12:41.189Z,9.90
2022-09-25T04:13:48.381Z,9.20
2022-09-25T04:14:56.302Z,8.10
2022-09-25T04:16:04.881Z,11.20
2022-09-25T04:17:12.329Z,8.80
2022-09-25T04:18:19.965Z,9.20
2022-09-25T04:19:27.278Z,7.60
2022-09-25T04:20:34.894Z,6.90
2022-09-25T04:21:42.244Z,7.10
2022-09-25T04:22:49.771Z,7.10
2022-09-25T04:24:15.529Z,7.40
2022-09-25T04:25:26.724Z,7.40
2022-09-25T04:26:34.104Z,7.80
2022-09-25T04:27:42.129Z,7.00
2022-09-25T04:28:50.424Z,7.70
2022-09-25T04:29:58.691Z,7.20
2022-09-25T04:31:06.105Z,5.60
2022-09-25T04:32:36.284Z,7.70
2022-09-25T04:33:50.731Z,8.00
2022-09-25T04:34:59.179Z,9.50
2022-09-25T04:36:10.864Z,5.70
2022-09-25T04:37:19.430Z,7.20
2022-09-25T04:38:27.367Z,6.80
2022-09-25T04:39:36.438Z,8.00
2022-09-25T04:40:43.986Z,8.20
2022-09-25T04:41:52.748Z,7.50
2022-09-25T04:43:00.976Z,10.40
2022-09-25T04:44:08.203Z,7.20
2022-09-25T04:45:17.355Z,9.00
2022-09-25T04:46:24.984Z,9.40
2022-09-25T04:47:32.170Z,6.00
2022-09-25T04:48:39.810Z,10.00
2022-09-25T04:49:49.868Z,8.00
2022-09-25T04:50:58.101Z,5.60
2022-09-25T04:52:05.676Z,5.10
2022-09-25T04:53:14.184Z,7.00
2022-09-25T04:54:21.644Z,6.20
2022-09-25T04:55:29.317Z,7.20
2022-09-25T04:56:36.726Z,5.60
2022-09-25T04:57:58.278Z,8.70
2022-09-25T04:59:06.715Z,6.10
2022-09-25T05:00:18.344Z,7.70
2022-09-25T05:01:26.373Z,8.00
2022-09-25T05:02:33.975Z,6.10
2022-09-25T05:03:44.450Z,8.00
2022-09-25T05:04:51.997Z,9.30
2022-09-25T05:06:01.287Z,8.80
2022-09-25T05:07:08.957Z,5.60
2022-09-25T05:08:16.412Z,6.50
2022-09-25T05:09:23.765Z,6.30
2022-09-25T05:10:32.831Z,8.00
2022-09-25T05:11:40.117Z,8.10
2022-09-25T05:12:48.791Z,7.90
2022-09-25T05:13:56.598Z,9.60
2022-09-25T05:15:04.137Z,7.90
2022-09-25T05:16:11.918Z,8.00
2022-09-25T05:17:19.082Z,9.70
2022-09-25T05:18:26.455Z,8.10
2022-09-25T05:19:33.540Z,6.60
2022-09-25T05:20:40.852Z,7.60
2022-09-25T05:21:48.096Z,6.90
2022-09-25T05:23:01.212Z,10.10
2022-09-25T05:24:10.027Z,10.10
2022-09-25T05:25:17.757Z,9.70
2022-09-25T05:26:25.522Z,8.50
2022-09-25T05:27:36.311Z,9.60
2022-09-25T05:28:43.563Z,8.00
2022-09-25T05:29:50.956Z,8.70
2022-09-25T05:31:04.071Z,11.10
2022-09-25T05:32:11.973Z,10.10
2022-09-25T05:33:22.573Z,11.00
2022-09-25T05:34:30.376Z,10.40
2022-09-25T05:35:38.228Z,8.70
2022-09-25T05:36:45.794Z,11.50
2022-09-25T05:37:56.464Z,8.40
2022-09-25T05:39:05.302Z,9.90
2022-09-25T05:40:13.475Z,8.80
2022-09-25T05:41:21.137Z,10.20
2022-09-25T05:42:29.665Z,8.90
2022-09-25T05:43:44.182Z,11.40
2022-09-25T05:44:51.614Z,14.80
2022-09-25T05:45:59.126Z,11.80
2022-09-25T05:47:09.134Z,12.00
2022-09-25T05:48:20.854Z,12.50
2022-09-25T05:49:28.671Z,12.10
2022-09-25T05:50:44.166Z,10.20
2022-09-25T05:51:51.546Z,9.60
2022-09-25T05:53:04.887Z,11.00
2022-09-25T05:54:12.973Z,10.80
2022-09-25T05:55:20.549Z,8.80
2022-09-25T05:56:28.180Z,9.20
2022-09-25T05:57:36.706Z,9.00
2022-09-25T05:58:44.331Z,8.90
2022-09-25T05:59:51.883Z,8.00
2022-09-25T06:01:03.381Z,9.30
2022-09-25T06:02:14.429Z,10.40
2022-09-25T06:03:21.943Z,8.00
2022-09-25T06:04:29.344Z,8.10
2022-09-25T06:05:36.747Z,12.30
2022-09-25T06:06:44.249Z,7.50
2022-09-25T06:07:55.543Z,10.00
2022-09-25T06:09:03.086Z,11.80
2022-09-25T06:10:11.510Z,11.00
2022-09-25T06:11:22.433Z,8.00
2022-09-25T06:12:32.758Z,7.40
2022-09-25T06:13:39.978Z,10.80
2022-09-25T06:14:48.143Z,11.50
2022-09-25T06:15:55.495Z,8.50
2022-09-25T06:17:02.994Z,7.10
2022-09-25T06:18:10.630Z,9.30
2022-09-25T06:19:18.785Z,9.50
2022-09-25T06:20:26.344Z,9.60
2022-09-25T06:21:33.588Z,13.30
2022-09-25T06:22:40.823Z,11.00
2022-09-25T06:23:47.943Z,9.80
2022-09-25T06:24:55.356Z,11.00
2022-09-25T06:26:05.534Z,10.60
2022-09-25T06:27:14.290Z,10.90
2022-09-25T06:28:21.984Z,8.00
2022-09-25T06:29:29.114Z,10.30
2022-09-25T06:30:37.696Z,10.00
2022-09-25T06:31:47.347Z,12.30
2022-09-25T06:32:59.273Z,10.80
2022-09-25T06:34:06.623Z,11.20
2022-09-25T06:35:14.125Z,10.80
2022-09-25T06:36:21.380Z,11.20
2022-09-25T06:37:28.780Z,11.20
2022-09-25T06:38:36.194Z,10.40
2022-09-25T06:39:43.575Z,9.70
2022-09-25T06:40:50.994Z,8.90
2022-09-25T06:41:58.392Z,11.40
2022-09-25T06:43:06.169Z,11.10
2022-09-25T06:44:13.645Z,10.80
2022-09-25T06:45:21.298Z,15.80
2022-09-25T06:46:28.621Z,9.20
2022-09-25T06:47:36.305Z,12.50
2022-09-25T06:48:44.132Z,12.30
2022-09-25T06:49:51.164Z,16.70
2022-09-25T06:51:00.890Z,13.10
2022-09-25T06:52:08.539Z,13.80
2022-09-25T06:53:16.387Z,8.90
2022-09-25T06:54:23.686Z,11.80
2022-09-25T06:55:33.573Z,11.80
2022-09-25T06:56:40.918Z,8.90
2022-09-25T06:57:48.284Z,12.20
2022-09-25T06:58:55.697Z,14.70
2022-09-25T07:00:02.875Z,9.10
2022-09-25T07:01:11.979Z,11.10
2022-09-25T07:02:37.984Z,17.60
2022-09-25T07:03:48.740Z,9.30
2022-09-25T07:04:56.157Z,10.70
2022-09-25T07:06:04.013Z,12.20
2022-09-25T07:07:11.426Z,10.50
2022-09-25T07:08:19.419Z,10.50
2022-09-25T07:09:26.908Z,12.60
2022-09-25T07:10:34.314Z,9.60
2022-09-25T07:11:45.463Z,11.10
2022-09-25T07:12:53.057Z,10.60
2022-09-25T07:14:00.279Z,8.40
2022-09-25T07:15:08.751Z,10.50
2022-09-25T07:16:18.388Z,8.10
2022-09-25T07:17:26.043Z,9.50
2022-09-25T07:18:33.352Z,8.70
2022-09-25T07:19:40.559Z,11.20
2022-09-25T07:20:48.315Z,7.40
2022-09-25T07:21:56.627Z,12.30
2022-09-25T07:23:05.470Z,11.50
2022-09-25T07:24:12.853Z,9.90
2022-09-25T07:25:21.370Z,15.50
2022-09-25T07:26:32.105Z,13.20
2022-09-25T07:27:39.993Z,12.40
2022-09-25T07:28:48.301Z,9.70
2022-09-25T07:29:58.153Z,11.40
2022-09-25T07:31:18.377Z,13.10
2022-09-25T07:32:26.699Z,11.20
2022-09-25T07:33:34.955Z,15.40
2022-09-25T07:34:44.279Z,17.40
2022-09-25T07:35:53.914Z,10.90
2022-09-25T07:37:02.286Z,12.70
2022-09-25T07:38:10.964Z,16.10
2022-09-25T07:39:20.185Z,10.90
2022-09-25T07:40:31.529Z,11.00
2022-09-25T07:41:42.956Z,10.30
2022-09-25T07:43:07.168Z,10.40
2022-09-25T07:44:37.559Z,12.50
2022-09-25T07:45:56.523Z,10.10
2022-09-25T07:47:05.893Z,11.40
2022-09-25T07:48:15.284Z,12.40
2022-09-25T07:49:29.436Z,10.80
2022-09-25T07:50:38.030Z,16.90
2022-09-25T07:51:46.008Z,12.50
2022-09-25T07:52:55.288Z,14.10
2022-09-25T07:54:04.353Z,11.40
2022-09-25T07:55:12.990Z,14.00
2022-09-25T07:56:22.654Z,14.20
2022-09-25T07:57:31.649Z,13.50
2022-09-25T07:58:39.976Z,11.70
2022-09-25T07:59:49.760Z,17.20
2022-09-25T08:01:01.780Z,10.80
2022-09-25T08:02:11.384Z,15.60
2022-09-25T08:03:20.448Z,12.10
2022-09-25T08:04:29.108Z,15.00
2022-09-25T08:05:37.206Z,11.60
2022-09-25T08:06:46.429Z,12.80
2022-09-25T08:07:56.049Z,14.50
2022-09-25T08:09:09.648Z,10.00
2022-09-25T08:10:21.089Z,9.30
2022-09-25T08:11:30.341Z,9.60
2022-09-25T08:12:38.589Z,13.60
2022-09-25T08:13:46.104Z,9.40
2022-09-25T08:14:54.456Z,13.30
2022-09-25T08:16:05.523Z,9.50
2022-09-25T08:17:12.982Z,13.50
2022-09-25T08:18:20.402Z,11.10
2022-09-25T08:19:29.309Z,12.80
2022-09-25T08:20:41.406Z,10.40
2022-09-25T08:21:49.061Z,11.30
2022-09-25T08:22:58.640Z,12.20
2022-09-25T08:24:05.919Z,12.30
2022-09-25T08:25:13.876Z,10.10
2022-09-25T08:26:24.767Z,11.20
2022-09-25T08:27:32.627Z,10.80
2022-09-25T08:28:39.868Z,14.20
2022-09-25T08:29:47.459Z,20.80
2022-09-25T08:30:55.484Z,11.70
2022-09-25T08:32:02.950Z,15.10
2022-09-25T08:33:15.633Z,12.50
2022-09-25T08:36:00.857Z,9.60
2022-09-25T08:37:09.642Z,12.50
2022-09-25T08:38:18.521Z,18.20
2022-09-25T08:39:25.947Z,12.50
2022-09-25T08:40:33.372Z,11.30
2022-09-25T08:41:51.020Z,14.80
2022-09-25T08:42:58.922Z,14.10
2022-09-25T08:44:38.307Z,12.90
2022-09-25T08:46:04.699Z,14.10
2022-09-25T08:47:52.672Z,16.40
2022-09-25T08:49:12.286Z,14.60
2022-09-25T08:50:30.205Z,11.00
2022-09-25T08:51:45.283Z,13.60
2022-09-25T08:53:05.639Z,12.10
2022-09-25T08:54:26.099Z,12.50
2022-09-25T08:55:56.016Z,16.90
2022-09-25T08:57:24.066Z,9.70
2022-09-25T08:58:36.132Z,14.60
2022-09-25T08:59:45.477Z,13.40
2022-09-25T09:00:57.933Z,13.70
2022-09-25T09:02:13.402Z,10.80
2022-09-25T09:03:21.003Z,12.10
2022-09-25T09:04:34.630Z,12.50
2022-09-25T09:05:43.405Z,16.90
2022-09-25T09:07:21.969Z,12.40
2022-09-25T09:08:27.428Z,11.70
2022-09-25T09:09:49.364Z,10.00
2022-09-25T09:11:07.054Z,13.00
2022-09-25T09:12:23.921Z,14.20
2022-09-25T09:13:38.595Z,16.00
2022-09-25T09:14:51.371Z,12.30
2022-09-25T09:16:14.355Z,10.20
2022-09-25T09:17:27.001Z,10.10
2022-09-25T09:18:39.552Z,10.40
2022-09-25T09:19:52.072Z,11.30
2022-09-25T09:21:12.993Z,10.70
2022-09-25T09:22:25.050Z,8.80
2022-09-25T09:23:45.437Z,9.00
2022-09-25T09:25:01.330Z,13.00
2022-09-25T09:26:23.250Z,10.80
2022-09-25T09:27:49.087Z,13.40
2022-09-25T09:29:19.670Z,12.90
2022-09-25T09:30:49.082Z,12.40
2022-09-25T09:32:01.377Z,12.60
2022-09-25T09:33:35.900Z,12.30
2022-09-25T09:35:06.163Z,17.50
2022-09-25T09:36:33.138Z,14.00
2022-09-25T09:37:52.850Z,14.40
2022-09-25T09:39:35.030Z,15.60
2022-09-25T09:41:00.953Z,15.30
2022-09-25T09:42:30.439Z,13.00
2022-09-25T09:43:57.233Z,11.20
2022-09-25T09:45:33.642Z,12.00
2022-09-25T09:46:45.282Z,10.20
2022-09-25T09:48:11.907Z,17.10
2022-09-25T09:49:35.269Z,12.40
2022-09-25T09:51:05.726Z,12.10
2022-09-25T09:52:18.486Z,10.10
2022-09-25T09:53:29.321Z,11.00
2022-09-25T09:54:42.598Z,15.80
2022-09-25T09:55:54.142Z,12.70
2022-09-25T09:57:01.467Z,11.10
2022-09-25T09:58:24.732Z,12.60
2022-09-25T09:59:52.775Z,12.60
2022-09-25T10:01:11.116Z,11.90
2022-09-25T10:02:45.030Z,16.40
2022-09-25T10:04:07.274Z,15.50
2022-09-25T10:05:28.724Z,12.40
2022-09-25T10:06:38.845Z,14.90
2022-09-25T10:07:46.107Z,12.20
2022-09-25T10:08:53.673Z,14.40
2022-09-25T10:10:02.396Z,10.20
2022-09-25T10:11:20.406Z,14.40
2022-09-25T10:12:35.464Z,10.50
2022-09-25T10:13:43.004Z,11.60
2022-09-25T10:14:51.433Z,15.70
2022-09-25T10:16:06.443Z,18.80
2022-09-25T10:17:14.264Z,20.20
2022-09-25T10:18:23.331Z,20.50
2022-09-25T10:19:31.230Z,14.10
2022-09-25T10:20:52.764Z,20.60
2022-09-25T10:22:24.305Z,17.00
2022-09-25T10:23:40.729Z,18.00
2022-09-25T10:25:04.609Z,14.20
2022-09-25T10:26:39.378Z,15.90
2022-09-25T10:27:51.190Z,13.20
2022-09-25T10:29:00.286Z,21.90
2022-09-25T10:30:09.595Z,17.40
2022-09-25T10:31:17.146Z,16.50
2022-09-25T10:32:24.890Z,15.50
2022-09-25T10:33:35.596Z,18.50
2022-09-25T10:34:43.010Z,13.40
2022-09-25T10:35:52.277Z,15.80
2022-09-25T10:37:01.358Z,15.80
2022-09-25T10:38:29.138Z,15.00
2022-09-25T10:39:46.224Z,15.20
2022-09-25T10:41:04.360Z,14.50
2022-09-25T10:42:48.045Z,12.00
2022-09-25T10:44:01.960Z,9.50
2022-09-25T10:45:25.270Z,12.70
2022-09-25T10:46:52.476Z,10.60
2022-09-25T10:48:18.868Z,9.10
2022-09-25T10:49:48.914Z,15.20
2022-09-25T10:51:12.213Z,11.20
2022-09-25T10:52:23.742Z,8.90
2022-09-25T10:53:34.807Z,8.80
2022-09-25T10:54:45.548Z,14.20
2022-09-25T10:55:55.094Z,11.60
2022-09-25T10:57:02.413Z,11.70
2022-09-25T10:58:12.985Z,11.30
2022-09-25T10:59:24.538Z,10.70
2022-09-25T11:00:32.714Z,8.60
2022-09-25T11:01:44.234Z,7.90
2022-09-25T11:02:55.668Z,12.20
2022-09-25T11:04:03.882Z,8.80
2022-09-25T11:05:25.606Z,11.00
2022-09-25T11:06:34.939Z,7.90
2022-09-25T11:07:42.478Z,11.30
2022-09-25T11:08:57.420Z,10.60
2022-09-25T11:10:04.802Z,11.60
2022-09-25T11:11:15.563Z,11.40
2022-09-25T11:12:24.943Z,13.90
2022-09-25T11:13:39.550Z,13.30
2022-09-25T11:14:59.197Z,10.80
2022-09-25T11:16:11.804Z,13.70
2022-09-25T11:17:44.028Z,11.50
2022-09-25T11:18:53.061Z,10.60
2022-09-25T11:20:19.068Z,11.30
2022-09-25T11:21:31.597Z,11.10
2022-09-25T11:22:39.495Z,17.90
2022-09-25T11:24:16.972Z,9.80
2022-09-25T11:25:36.154Z,14.80
2022-09-25T11:27:06.870Z,8.70
2022-09-25T11:28:37.797Z,9.80
2022-09-25T11:30:07.842Z,11.80
2022-09-25T11:31:55.241Z,10.50
2022-09-25T11:33:13.769Z,11.70
2022-09-25T11:35:00.468Z,10.80
2022-09-25T11:36:08.449Z,15.00
2022-09-25T11:37:28.523Z,11.80
2022-09-25T11:39:13.573Z,15.00
2022-09-25T11:41:08.692Z,18.10
2022-09-25T11:42:19.742Z,17.50
2022-09-25T11:43:57.211Z,17.40
2022-09-25T11:45:15.886Z,14.30
2022-09-25T11:46:36.910Z,15.50
2022-09-25T11:47:58.769Z,17.20
2022-09-25T11:49:13.563Z,16.00
2022-09-25T11:50:21.356Z,24.70
2022-09-25T11:51:37.315Z,19.40
2022-09-25T11:52:49.082Z,19.30
2022-09-25T11:54:33.653Z,24.00
2022-09-25T11:56:32.853Z,17.20
2022-09-25T11:58:11.237Z,17.60
2022-09-25T11:59:39.753Z,16.50
2022-09-25T12:01:13.634Z,12.80
2022-09-25T12:02:42.692Z,16.00
2022-09-25T12:04:14.636Z,12.20
2022-09-25T12:05:50.657Z,17.20
2022-09-25T12:07:23.944Z,10.90
2022-09-25T12:08:52.097Z,15.00
2022-09-25T12:10:09.923Z,14.50
2022-09-25T12:11:40.793Z,16.50
2022-09-25T12:13:00.586Z,28.30
2022-09-25T12:14:38.684Z,14.00
2022-09-25T12:15:52.451Z,12.80
2022-09-25T12:17:11.914Z,13.10
2022-09-25T12:18:24.298Z,11.40
2022-09-25T12:19:45.896Z,19.50
2022-09-25T12:21:07.631Z,15.70
2022-09-25T12:22:24.399Z,12.70
2022-09-25T12:23:36.281Z,14.20
2022-09-25T12:24:54.106Z,16.80
2022-09-25T12:26:22.225Z,17.80
2022-09-25T12:28:11.215Z,12.60
2022-09-25T12:29:32.422Z,13.60
2022-09-25T12:31:25.183Z,14.20
2022-09-25T12:32:43.682Z,18.10
2022-09-25T12:34:07.680Z,12.10
2022-09-25T12:35:22.988Z,14.50
2022-09-25T12:36:41.611Z,11.90
2022-09-25T12:37:58.924Z,18.20
2022-09-25T12:39:21.890Z,12.00
2022-09-25T12:40:35.895Z,10.50
2022-09-25T12:41:44.665Z,12.50
2022-09-25T12:42:58.404Z,9.40
2022-09-25T12:44:29.316Z,10.90
2022-09-25T12:45:42.390Z,11.80
2022-09-25T12:47:22.882Z,11.40
2022-09-25T12:48:38.921Z,12.40
2022-09-25T12:50:10.725Z,14.40
2022-09-25T12:51:36.821Z,10.50
2022-09-25T12:52:52.367Z,28.10
2022-09-25T12:54:15.918Z,14.90
2022-09-25T12:55:29.253Z,15.00
2022-09-25T12:56:42.868Z,22.10
2022-09-25T12:58:19.704Z,16.60
2022-09-25T12:59:43.935Z,24.40
2022-09-25T13:01:00.606Z,21.60
2022-09-25T13:02:14.147Z,14.10
2022-09-25T13:03:47.469Z,12.10
2022-09-25T13:05:20.789Z,14.40
2022-09-25T13:06:50.015Z,15.90
2022-09-25T13:08:25.155Z,15.00
2022-09-25T13:09:46.181Z,12.70
2022-09-25T13:10:59.742Z,12.40
2022-09-25T13:12:37.646Z,11.80
2022-09-25T13:13:49.113Z,12.10
2022-09-25T13:15:08.959Z,10.20
2022-09-25T13:16:17.274Z,13.10
2022-09-25T13:17:25.202Z,18.90
2022-09-25T13:18:35.375Z,17.60
2022-09-25T13:19:42.689Z,14.30
2022-09-25T13:20:51.116Z,16.80
2022-09-25T13:22:08.626Z,17.40
2022-09-25T13:23:41.967Z,17.90
2022-09-25T13:24:55.677Z,19.40
2022-09-25T13:26:13.420Z,19.70
2022-09-25T13:27:24.670Z,17.60
2022-09-25T13:28:42.407Z,14.80
2022-09-25T13:29:59.008Z,13.10
2022-09-25T13:31:09.660Z,14.00
2022-09-25T13:32:20.747Z,17.20
2022-09-25T13:33:29.439Z,18.40
2022-09-25T13:34:41.271Z,18.90
2022-09-25T13:35:49.072Z,14.70
2022-09-25T13:36:58.405Z,15.90
2022-09-25T13:38:52.643Z,17.80
2022-09-25T13:40:20.227Z,16.50
2022-09-25T13:41:31.316Z,18.50
2022-09-25T13:42:41.557Z,17.20
2022-09-25T13:43:51.016Z,15.00
2022-09-25T13:45:22.947Z,19.70
2022-09-25T13:46:35.673Z,21.70
2022-09-25T13:47:51.956Z,20.40
2022-09-25T13:49:00.333Z,26.90
2022-09-25T13:50:15.336Z,23.00
2022-09-25T13:51:25.299Z,19.90
2022-09-25T13:53:12.257Z,18.10
2022-09-25T13:54:27.537Z,18.20
2022-09-25T13:55:40.332Z,19.90
2022-09-25T13:56:50.546Z,18.80
2022-09-25T13:58:01.895Z,19.90
2022-09-25T13:59:15.711Z,20.30
2022-09-25T14:00:25.036Z,23.30
2022-09-25T14:01:43.537Z,19.00
2022-09-25T14:02:52.421Z,20.70
2022-09-25T14:04:00.781Z,21.80
2022-09-25T14:05:09.319Z,18.20
2022-09-25T14:06:27.093Z,24.10
2022-09-25T14:07:37.023Z,15.10
2022-09-25T14:08:45.786Z,17.80
2022-09-25T14:10:00.886Z,19.10
2022-09-25T14:11:11.679Z,15.60
2022-09-25T14:12:47.544Z,17.10
2022-09-25T14:13:57.922Z,22.70
2022-09-25T14:15:10.800Z,19.80
2022-09-25T14:16:30.033Z,22.10
2022-09-25T14:17:38.235Z,19.40
2022-09-25T14:18:50.208Z,18.70
2022-09-25T14:20:03.689Z,23.30
2022-09-25T14:21:15.098Z,17.80
2022-09-25T14:22:29.476Z,18.30
2022-09-25T14:23:37.069Z,18.70
2022-09-25T14:24:46.896Z,26.00
2022-09-25T14:26:01.989Z,21.90
2022-09-25T14:27:30.143Z,24.50
2022-09-25T14:28:48.615Z,25.30
2022-09-25T14:30:09.334Z,22.60
2022-09-25T14:31:25.515Z,21.50
2022-09-25T14:32:55.906Z,25.00
2022-09-25T14:34:27.914Z,18.00
2022-09-25T14:35:44.397Z,21.50
2022-09-25T14:37:01.913Z,21.40
2022-09-25T14:38:24.264Z,19.70
2022-09-25T14:39:50.099Z,22.40
2022-09-25T14:41:21.467Z,17.70
2022-09-25T14:42:29.176Z,22.50
2022-09-25T14:44:20.105Z,20.40
2022-09-25T14:45:46.217Z,16.80
2022-09-25T14:46:53.776Z,21.90
2022-09-25T14:48:01.333Z,24.80
2022-09-25T14:49:25.741Z,18.00
2022-09-25T14:50:36.325Z,19.20
2022-09-25T14:51:45.668Z,16.90
2022-09-25T14:52:56.400Z,26.30
2022-09-25T14:54:05.602Z,20.50
2022-09-25T14:55:17.536Z,18.90
2022-09-25T14:56:25.571Z,15.90
2022-09-25T14:57:34.568Z,21.70
2022-09-25T14:58:53.466Z,21.70
2022-09-25T15:00:07.535Z,19.80
2022-09-25T15:01:33.468Z,20.70
2022-09-25T15:02:44.187Z,21.10
2022-09-25T15:03:51.778Z,25.20
2022-09-25T15:05:19.139Z,20.20
2022-09-25T15:06:33.591Z,18.10
2022-09-25T15:07:44.094Z,16.80
2022-09-25T15:08:51.235Z,18.70
2022-09-25T15:09:59.907Z,18.30
2022-09-25T15:11:14.251Z,17.80
2022-09-25T15:12:30.611Z,17.70
2022-09-25T15:13:37.863Z,18.30
2022-09-25T15:15:08.436Z,17.20
2022-09-25T15:16:40.224Z,17.90
2022-09-25T15:17:50.506Z,16.80
2022-09-25T15:19:00.860Z,15.40
2022-09-25T15:20:09.246Z,14.10
2022-09-25T15:21:30.526Z,20.60
2022-09-25T15:22:39.860Z,26.70
2022-09-25T15:23:47.302Z,31.60
2022-09-25T15:24:56.492Z,26.10
2022-09-25T15:26:04.030Z,26.90
2022-09-25T15:27:13.384Z,27.10
2022-09-25T15:28:22.225Z,21.10
2022-09-25T15:29:29.661Z,21.40
2022-09-25T15:30:38.643Z,22.70
2022-09-25T15:31:54.681Z,19.50
2022-09-25T15:33:02.502Z,24.10
2022-09-25T15:34:16.829Z,22.50
2022-09-25T15:35:26.140Z,18.30
2022-09-25T15:36:33.705Z,15.60
2022-09-25T15:37:41.008Z,23.70
2022-09-25T15:38:59.034Z,15.10
2022-09-25T15:40:29.197Z,16.60
2022-09-25T15:41:36.381Z,15.20
2022-09-25T15:42:47.457Z,15.90
2022-09-25T15:43:55.372Z,15.90
2022-09-25T15:45:03.232Z,17.00
2022-09-25T15:46:10.754Z,14.90
2022-09-25T15:47:39.716Z,15.20
2022-09-25T15:48:54.963Z,16.00
2022-09-25T15:50:02.178Z,14.80
2022-09-25T15:51:25.810Z,13.30
2022-09-25T15:52:36.014Z,14.70
2022-09-25T15:53:47.073Z,21.00
2022-09-25T15:54:54.662Z,16.80
2022-09-25T15:56:15.472Z,14.40
2022-09-25T15:57:32.093Z,13.10
2022-09-25T15:59:05.505Z,12.40
2022-09-25T16:00:56.988Z,12.30
2022-09-25T16:02:38.235Z,14.40
2022-09-25T16:04:09.049Z,14.20
2022-09-25T16:05:17.776Z,13.20
2022-09-25T16:06:26.095Z,16.70
2022-09-25T16:07:38.017Z,13.40
2022-09-25T16:08:45.411Z,16.60
2022-09-25T16:09:53.370Z,15.10